Acme, Michigan
Current Conditions -  °F | °C
As of 11:53 AM on Monday 24 Nov 2014 (Local Time) from KTVC Reporting Station
Overcast Overcast  
Wind Chill: 43°   Ceiling: 500
Heat Index: 47°   Visibility: 10mi
Dew Point: 44°   Wind: 8mph
Humidity: 90%   Direction: 250°WSW
Pressure: 29"   Gusts: NA
Location:  44.77°N, 85.5°W
Report Text: KTVC 241653Z 25007KT 10SM OVC005 08/07 A2900 RMK AO2 SLP821 T00830067
Loading
Personal Weather Stations






























Interactive Weather Map New forecast layout! Learn more

10-Day Weather Forecast

Advertisements
Track Severe Weather on mobile